Airfield :
LOGIN :

Register | Disclaimer

   EN    FR    IT 

 










Legend :    VFR   Marginal VFR   IFR   Intensive IFR   Very Intensive IFR
Visi :
Ceiling :
>= 8 km
>= 3000ft
5 to 8 km
1000 to 3000 ft
1500m to 5 km
500 to 1000 ft
800 to 1500m
200 to 500 ft
< 800m
< 200 ft
Symbols :   Thunderstorms  Fog  Heavy snow  Heavy precipitations  Wind > 20 kt
SIGMETs :     Misc.  Thunderstorms  Icing  Turbulence  Mountain Waves  Volcanic Ashes






- Airport Elevation : 290 ft
- IATA code : LAI


LFRO - Lannion

CURRENT METAR :
  • 311230Z AUTO 26020KT 9999 BKN018 BKN025 OVC032 13/11 Q1014

EXPIRED METARs :
  • 311200Z AUTO 26017KT 9999 FEW009 SCT018 OVC028 13/12 Q1014
  • 311130Z AUTO 26020KT 7000 -RA FEW009/// BKN020/// BKN028/// ///TCU 13/12 Q1013
  • 311100Z AUTO 23018G29KT 4900 1800 RA BR SCT012/// BKN020/// BKN045/// ///CB 14/13 Q1013
  • 311030Z AUTO 23024G38KT 200V260 2300 R29/1400U RA BR SCT010/// BKN015/// BKN024/// ///CB 15/13 Q1012
  • 311000Z AUTO 19016KT 6000 -RA BKN010/// BKN015/// BKN024/// ///CB 16/15 Q1011

Expired Forecast.



MET'MAP, your aeronautical weather chart ! - Copyright ORBIFLY December 2007 - Disclaimer

ORBIFLY MET'MAP TEAM :

Programming & Development : Alexandra Zaïnal
Concept & original design : Baudouin d'Aumeries
Assistance for programming : Marc-Olivier Méhu
Technical & hardware support : Manuel Goepfert

Contact : metmap@orbifly.com




SOURCES & CREDITS :

   NOAA